Chesapeake — WDD3041 — position and weather

sailwx.info

Track history (hours):
 
Tides and Currents Weather Stations Pressure Air Temp Water Temp Dewpoint Dewpoint Depression Visibility Wind Speed Wind Dir Waves Ship Positions

Chesapeake

Owner: Vane Line Bunkering, Baltimore, MD. More information available from US FCC via Universal Licensing System and Coast Guard Vessel Documentation Center.

Last reported at 2015-Jan-18 09:17 UTC. Time now 2015-Jan-25 22:21 UTC.
Position N 25°48' W 080°02'.

Length 34 m; draft 16 m.

Type: Tug. MMSI: 367123040.

Date/timePositionNaut miles runAvg speedWind from/ knotsBaromVisibWave heightAir tempDewpointWater temp
2015-Jan-18 09:17N 25°48' W 080°02'911.9
2015-Jan-18 08:31N 25°57' W 080°01'1212.0
2015-Jan-18 07:34N 26°09' W 080°00'1111.4
2015-Jan-18 06:34N 26°20' W 079°60'1111.5
2015-Jan-18 05:34N 26°32' W 079°59'2211.0
2015-Jan-18 03:34N 26°54' W 079°59'  
2015-Jan-15 02:27N 38°60' W 076°23'1011.6
2015-Jan-15 01:33N 39°10' W 076°25'8 7.7
2015-Jan-15 00:33N 39°14' W 076°34'0 0.0
2015-Jan-14 23:33N 39°14' W 076°34'0 0.0
2015-Jan-14 22:33N 39°14' W 076°34'0 0.0
2015-Jan-14 21:33N 39°14' W 076°34'0 0.0
2015-Jan-14 20:33N 39°14' W 076°34'0 0.0
2015-Jan-14 19:33N 39°14' W 076°34'0 0.0
2015-Jan-14 18:33N 39°14' W 076°34'0 0.0
2015-Jan-14 17:33N 39°14' W 076°34'0 0.0
2015-Jan-14 16:33N 39°14' W 076°34'1 0.9
2015-Jan-14 15:33N 39°14' W 076°33'1 1.2
2015-Jan-14 14:34N 39°15' W 076°34'0 0.0
2015-Jan-14 13:32N 39°15' W 076°34'0 0.0
2015-Jan-14 12:32N 39°15' W 076°34'0 0.0
2015-Jan-14 11:33N 39°15' W 076°34'0 0.0
2015-Jan-14 10:33N 39°15' W 076°34'0 0.0
2015-Jan-14 09:33N 39°15' W 076°34'0 0.0
2015-Jan-14 08:33N 39°15' W 076°34'0 0.0
2015-Jan-14 07:33N 39°15' W 076°34'0 0.0
2015-Jan-14 06:33N 39°15' W 076°34'0 0.0
2015-Jan-14 05:30N 39°15' W 076°34'0 0.0
2015-Jan-14 04:29N 39°15' W 076°34'0 0.0
2015-Jan-14 03:33N 39°15' W 076°34'0 0.0
2015-Jan-14 02:33N 39°15' W 076°34'0 0.0
2015-Jan-14 01:31N 39°15' W 076°34'0 0.0
2015-Jan-14 00:32N 39°15' W 076°34'0 0.0
2015-Jan-13 23:33N 39°15' W 076°34'1 1.1
2015-Jan-13 22:33N 39°15' W 076°33'0 0.0
2015-Jan-13 21:33N 39°15' W 076°33'0 0.0
2015-Jan-13 20:33N 39°15' W 076°33'0 0.0
2015-Jan-13 19:33N 39°15' W 076°33'0 0.0
2015-Jan-13 18:33N 39°15' W 076°33'0 0.0
2015-Jan-13 17:33N 39°15' W 076°33'0 0.0
2015-Jan-13 16:33N 39°15' W 076°33'0 0.0
2015-Jan-13 15:33N 39°15' W 076°33'0 0.0
2015-Jan-13 14:33N 39°15' W 076°33'0 0.0
2015-Jan-13 13:33N 39°15' W 076°33'0 0.0
2015-Jan-13 12:33N 39°15' W 076°33'1 1.0
2015-Jan-13 11:32N 39°15' W 076°34'0 0.0
2015-Jan-13 10:32N 39°15' W 076°34'0 0.0
2015-Jan-13 09:33N 39°15' W 076°34'0 0.0
2015-Jan-13 08:33N 39°15' W 076°34'0 0.0
2015-Jan-13 07:33N 39°15' W 076°34'0 0.0
2015-Jan-13 06:33N 39°15' W 076°34'0 0.0
2015-Jan-13 05:33N 39°15' W 076°34'0 0.0
2015-Jan-13 04:33N 39°15' W 076°34'0 0.0
2015-Jan-13 03:33N 39°15' W 076°34'0 0.0
2015-Jan-13 02:29N 39°15' W 076°34'0 0.0
2015-Jan-13 01:32N 39°15' W 076°34'0 0.0
2015-Jan-13 00:32N 39°15' W 076°34'0 0.0
2015-Jan-12 23:33N 39°15' W 076°34'1 0.6
2015-Jan-12 22:33N 39°15' W 076°34'1 0.6
2015-Jan-12 21:33N 39°15' W 076°33'0 0.0
2015-Jan-12 20:33N 39°15' W 076°33'0 0.0
2015-Jan-12 19:33N 39°15' W 076°33'0 0.0
2015-Jan-12 18:33N 39°15' W 076°33'2 2.2
2015-Jan-12 17:34N 39°17' W 076°36'2 2.2
2015-Jan-12 16:32N 39°15' W 076°33'2 2.2
2015-Jan-12 15:32N 39°16' W 076°36'0 0.0
2015-Jan-12 14:33N 39°16' W 076°36'0 0.0
2015-Jan-12 13:33N 39°16' W 076°36'  
Track history (hours):
 
Tides and Currents Weather Stations Pressure Air Temp Water Temp Dewpoint Dewpoint Depression Visibility Wind Speed Wind Dir Waves Ship Positions

Chesapeake

Owner: Vane Line Bunkering, Baltimore, MD. More information available from US FCC via Universal Licensing System and Coast Guard Vessel Documentation Center.

Last reported at 2015-Jan-18 09:17 UTC. Time now 2015-Jan-25 22:21 UTC.
Position N 25°48' W 080°02'.

Length 34 m; draft 16 m.

Type: Tug. MMSI: 367123040.

Date/timePositionNaut miles runAvg speedWind from/ knotsBaromVisibWave heightAir tempDewpointWater temp
2015-Jan-18 09:17N 25°48' W 080°02'911.9
2015-Jan-18 08:31N 25°57' W 080°01'1212.0
2015-Jan-18 07:34N 26°09' W 080°00'1111.4
2015-Jan-18 06:34N 26°20' W 079°60'1111.5
2015-Jan-18 05:34N 26°32' W 079°59'2211.0
2015-Jan-18 03:34N 26°54' W 079°59'  
2015-Jan-15 02:27N 38°60' W 076°23'1011.6
2015-Jan-15 01:33N 39°10' W 076°25'8 7.7
2015-Jan-15 00:33N 39°14' W 076°34'0 0.0
2015-Jan-14 23:33N 39°14' W 076°34'0 0.0
2015-Jan-14 22:33N 39°14' W 076°34'0 0.0
2015-Jan-14 21:33N 39°14' W 076°34'0 0.0
2015-Jan-14 20:33N 39°14' W 076°34'0 0.0
2015-Jan-14 19:33N 39°14' W 076°34'0 0.0
2015-Jan-14 18:33N 39°14' W 076°34'0 0.0
2015-Jan-14 17:33N 39°14' W 076°34'0 0.0
2015-Jan-14 16:33N 39°14' W 076°34'1 0.9
2015-Jan-14 15:33N 39°14' W 076°33'1 1.2
2015-Jan-14 14:34N 39°15' W 076°34'0 0.0
2015-Jan-14 13:32N 39°15' W 076°34'0 0.0
2015-Jan-14 12:32N 39°15' W 076°34'0 0.0
2015-Jan-14 11:33N 39°15' W 076°34'0 0.0
2015-Jan-14 10:33N 39°15' W 076°34'0 0.0
2015-Jan-14 09:33N 39°15' W 076°34'0 0.0
2015-Jan-14 08:33N 39°15' W 076°34'0 0.0
2015-Jan-14 07:33N 39°15' W 076°34'0 0.0
2015-Jan-14 06:33N 39°15' W 076°34'0 0.0
2015-Jan-14 05:30N 39°15' W 076°34'0 0.0
2015-Jan-14 04:29N 39°15' W 076°34'0 0.0
2015-Jan-14 03:33N 39°15' W 076°34'0 0.0
2015-Jan-14 02:33N 39°15' W 076°34'0 0.0
2015-Jan-14 01:31N 39°15' W 076°34'0 0.0
2015-Jan-14 00:32N 39°15' W 076°34'0 0.0
2015-Jan-13 23:33N 39°15' W 076°34'1 1.1
2015-Jan-13 22:33N 39°15' W 076°33'0 0.0
2015-Jan-13 21:33N 39°15' W 076°33'0 0.0
2015-Jan-13 20:33N 39°15' W 076°33'0 0.0
2015-Jan-13 19:33N 39°15' W 076°33'0 0.0
2015-Jan-13 18:33N 39°15' W 076°33'0 0.0
2015-Jan-13 17:33N 39°15' W 076°33'0 0.0
2015-Jan-13 16:33N 39°15' W 076°33'0 0.0
2015-Jan-13 15:33N 39°15' W 076°33'0 0.0
2015-Jan-13 14:33N 39°15' W 076°33'0 0.0
2015-Jan-13 13:33N 39°15' W 076°33'0 0.0
2015-Jan-13 12:33N 39°15' W 076°33'1 1.0
2015-Jan-13 11:32N 39°15' W 076°34'0 0.0
2015-Jan-13 10:32N 39°15' W 076°34'0 0.0
2015-Jan-13 09:33N 39°15' W 076°34'0 0.0
2015-Jan-13 08:33N 39°15' W 076°34'0 0.0
2015-Jan-13 07:33N 39°15' W 076°34'0 0.0
2015-Jan-13 06:33N 39°15' W 076°34'0 0.0
2015-Jan-13 05:33N 39°15' W 076°34'0 0.0
2015-Jan-13 04:33N 39°15' W 076°34'0 0.0
2015-Jan-13 03:33N 39°15' W 076°34'0 0.0
2015-Jan-13 02:29N 39°15' W 076°34'0 0.0
2015-Jan-13 01:32N 39°15' W 076°34'0 0.0
2015-Jan-13 00:32N 39°15' W 076°34'0 0.0
2015-Jan-12 23:33N 39°15' W 076°34'1 0.6
2015-Jan-12 22:33N 39°15' W 076°34'1 0.6
2015-Jan-12 21:33N 39°15' W 076°33'0 0.0
2015-Jan-12 20:33N 39°15' W 076°33'0 0.0
2015-Jan-12 19:33N 39°15' W 076°33'0 0.0
2015-Jan-12 18:33N 39°15' W 076°33'2 2.2
2015-Jan-12 17:34N 39°17' W 076°36'2 2.2
2015-Jan-12 16:32N 39°15' W 076°33'2 2.2
2015-Jan-12 15:32N 39°16' W 076°36'0 0.0
2015-Jan-12 14:33N 39°16' W 076°36'0 0.0
2015-Jan-12 13:33N 39°16' W 076°36'  

Dump ship's entire track history